Albany, California
Current Conditions -  °F | °C
As of 8:53 AM on Saturday 25 Oct 2014 (Local Time) from KOAK Reporting Station
Broken Clouds Broken Clouds  
Wind Chill: 62°   Ceiling: 3400
Heat Index: 62°   Visibility: 10mi
Dew Point: 58°   Wind: 13mph
Humidity: 86%   Direction: 150°SSE
Pressure: 30.01"   Gusts: NA
Location:  37.89°N, 122.29°W
Report Text: KOAK 251553Z 15011KT 10SM FEW008 SCT023 BKN034 17/14 A3001 RMK AO2 RAE29 SLP160 P0001 T01670144
Loading
Personal Weather Stations






























Interactive Weather Map
Tropical Storm Tracking
New forecast layout! Learn more

10-Day Weather Forecast

Advertisements
Track Severe Weather on mobile